createdAt,value
2019-02-07T00:02:19.106Z,17.65
2019-02-07T00:04:47.479Z,18.20
2019-02-07T00:07:15.863Z,18.27
2019-02-07T00:09:44.386Z,17.53
2019-02-07T00:12:13.339Z,16.80
2019-02-07T00:14:41.726Z,16.53
2019-02-07T00:17:10.336Z,18.57
2019-02-07T00:19:38.781Z,17.90
2019-02-07T00:22:07.845Z,17.50
2019-02-07T00:24:42.935Z,16.70
2019-02-07T00:27:07.549Z,18.07
2019-02-07T00:29:35.988Z,17.93
2019-02-07T00:32:04.435Z,16.83
2019-02-07T00:34:32.838Z,16.10
2019-02-07T00:37:01.586Z,17.90
2019-02-07T00:39:30.581Z,17.55
2019-02-07T00:41:58.935Z,17.20
2019-02-07T00:44:27.269Z,16.40
2019-02-07T00:46:55.614Z,17.00
2019-02-07T00:49:23.974Z,16.70
2019-02-07T00:51:52.461Z,17.33
2019-02-07T00:54:20.832Z,17.33
2019-02-07T00:56:49.207Z,17.03
2019-02-07T00:59:17.575Z,16.10
2019-02-07T01:01:45.956Z,17.60
2019-02-07T01:04:14.374Z,16.30
2019-02-07T01:06:42.719Z,17.87
2019-02-07T01:09:12.311Z,18.90
2019-02-07T01:11:40.765Z,17.17
2019-02-07T01:14:09.564Z,18.97
2019-02-07T01:16:37.962Z,17.90
2019-02-07T01:19:06.377Z,17.70
2019-02-07T01:21:35.690Z,19.10
2019-02-07T01:24:04.398Z,18.37
2019-02-07T01:26:32.733Z,18.13
2019-02-07T01:29:01.091Z,17.10
2019-02-07T01:31:29.422Z,16.73
2019-02-07T01:33:57.844Z,18.90
2019-02-07T01:36:26.207Z,17.87
2019-02-07T01:38:54.571Z,16.77
2019-02-07T01:41:23.040Z,18.10
2019-02-07T01:43:51.544Z,19.43
2019-02-07T01:46:19.883Z,18.60
2019-02-07T01:48:48.257Z,17.63
2019-02-07T01:51:16.629Z,18.83
2019-02-07T01:53:44.976Z,16.90
2019-02-07T01:56:13.405Z,18.53
2019-02-07T01:58:41.735Z,18.40
2019-02-07T02:01:10.672Z,18.63
2019-02-07T02:03:39.074Z,17.47
2019-02-07T02:06:07.544Z,17.30
2019-02-07T02:08:35.928Z,17.70
2019-02-07T02:11:04.458Z,18.35
2019-02-07T02:13:33.418Z,18.73
2019-02-07T02:16:01.834Z,17.67
2019-02-07T02:18:30.288Z,17.80
2019-02-07T02:20:58.656Z,18.77
2019-02-07T02:23:26.990Z,16.80
2019-02-07T02:25:55.398Z,17.63
2019-02-07T02:28:24.429Z,18.27
2019-02-07T02:30:52.864Z,17.43
2019-02-07T02:33:21.358Z,18.77
2019-02-07T02:35:50.224Z,17.30
2019-02-07T02:38:19.089Z,17.50
2019-02-07T02:40:47.452Z,17.20
2019-02-07T02:43:15.861Z,17.10
2019-02-07T02:45:44.484Z,16.80
2019-02-07T02:48:13.070Z,16.52
2019-02-07T02:50:41.401Z,17.30
2019-02-07T02:53:10.178Z,18.62
2019-02-07T02:55:40.525Z,16.80
2019-02-07T02:58:09.196Z,19.03
2019-02-07T03:00:38.365Z,17.77
2019-02-07T03:03:09.705Z,16.27
2019-02-07T03:05:41.878Z,18.17
2019-02-07T03:08:13.073Z,16.27
2019-02-07T03:10:45.153Z,17.85
2019-02-07T03:13:15.131Z,18.37
2019-02-07T03:15:49.697Z,18.30
2019-02-07T03:18:18.615Z,18.62
2019-02-07T03:20:49.597Z,18.17
2019-02-07T03:23:20.561Z,16.90
2019-02-07T03:25:50.285Z,16.00
2019-02-07T03:28:22.254Z,16.40
2019-02-07T03:30:53.255Z,14.87
2019-02-07T03:33:24.415Z,16.30
2019-02-07T03:35:54.151Z,16.00
2019-02-07T03:38:25.348Z,16.93
2019-02-07T03:40:56.518Z,16.83
2019-02-07T03:43:27.261Z,15.93
2019-02-07T03:46:02.864Z,15.53
2019-02-07T03:48:33.212Z,16.00
2019-02-07T03:51:04.711Z,15.87
2019-02-07T03:53:36.822Z,16.87
2019-02-07T03:56:07.072Z,15.55
2019-02-07T03:58:38.189Z,16.10
2019-02-07T04:01:07.326Z,17.20
2019-02-07T04:03:39.307Z,15.65
2019-02-07T04:06:11.850Z,17.00
2019-02-07T04:08:42.687Z,17.00
2019-02-07T04:11:14.081Z,15.70
2019-02-07T04:13:44.244Z,17.13
2019-02-07T04:16:15.384Z,19.40
2019-02-07T04:18:47.110Z,17.10
2019-02-07T04:21:20.171Z,16.50
2019-02-07T04:23:52.076Z,17.13
2019-02-07T04:26:24.115Z,16.82
2019-02-07T04:28:56.243Z,17.10
2019-02-07T04:31:26.705Z,16.10
2019-02-07T04:33:57.001Z,16.50
2019-02-07T04:36:25.333Z,16.27
2019-02-07T04:38:56.478Z,16.50
2019-02-07T04:41:28.446Z,15.87
2019-02-07T04:43:58.058Z,16.20
2019-02-07T04:46:28.787Z,16.70
2019-02-07T04:49:00.828Z,16.17
2019-02-07T04:51:31.816Z,16.12
2019-02-07T04:54:02.963Z,14.50
2019-02-07T04:56:32.004Z,17.20
2019-02-07T04:59:03.117Z,16.20
2019-02-07T05:01:34.291Z,15.32
2019-02-07T05:04:05.290Z,17.37
2019-02-07T05:06:36.212Z,14.50
2019-02-07T05:09:09.206Z,15.40
2019-02-07T05:11:40.196Z,16.77
2019-02-07T05:14:09.703Z,15.67
2019-02-07T05:16:43.657Z,18.10
2019-02-07T05:19:15.327Z,17.27
2019-02-07T05:21:47.418Z,16.85
2019-02-07T05:24:19.469Z,15.40
2019-02-07T05:26:52.440Z,14.60
2019-02-07T05:29:22.866Z,15.23
2019-02-07T05:31:55.897Z,16.05
2019-02-07T05:34:26.607Z,14.70
2019-02-07T05:36:57.714Z,15.33
2019-02-07T05:39:27.448Z,15.60
2019-02-07T05:41:59.585Z,15.10
2019-02-07T05:44:30.020Z,15.67
2019-02-07T05:47:03.135Z,16.00
2019-02-07T05:49:34.073Z,15.87
2019-02-07T05:52:06.032Z,15.77
2019-02-07T05:54:38.152Z,15.60
2019-02-07T05:57:10.139Z,15.20
2019-02-07T05:59:40.928Z,15.80
2019-02-07T06:02:11.181Z,16.10
2019-02-07T06:04:40.413Z,15.60
2019-02-07T06:07:11.151Z,14.67
2019-02-07T06:09:40.943Z,15.63
2019-02-07T06:12:12.105Z,16.10
2019-02-07T06:14:40.772Z,14.70
2019-02-07T06:17:11.635Z,16.27
2019-02-07T06:19:42.713Z,17.70
2019-02-07T06:22:12.207Z,15.97
2019-02-07T06:24:42.494Z,16.53
2019-02-07T06:27:13.518Z,16.23
2019-02-07T06:29:45.523Z,15.57
2019-02-07T06:32:16.145Z,16.63
2019-02-07T06:34:48.023Z,17.67
2019-02-07T06:37:20.150Z,14.97
2019-02-07T06:39:50.445Z,15.50
2019-02-07T06:42:21.652Z,15.67
2019-02-07T06:44:54.791Z,14.83
2019-02-07T06:47:25.710Z,15.80
2019-02-07T06:49:57.724Z,15.40
2019-02-07T06:52:28.726Z,16.80
2019-02-07T06:54:58.839Z,16.77
2019-02-07T06:57:30.026Z,13.57
2019-02-07T06:59:58.706Z,15.63
2019-02-07T07:02:29.329Z,15.17
2019-02-07T07:04:59.606Z,15.50
2019-02-07T07:07:29.651Z,17.17
2019-02-07T07:09:59.173Z,15.10
2019-02-07T07:12:27.858Z,16.20
2019-02-07T07:14:59.949Z,16.90
2019-02-07T07:17:30.993Z,15.70
2019-02-07T07:20:00.998Z,17.80
2019-02-07T07:22:31.853Z,15.73
2019-02-07T07:25:02.654Z,17.43
2019-02-07T07:27:32.444Z,15.20
2019-02-07T07:30:03.556Z,17.33
2019-02-07T07:32:34.682Z,17.50
2019-02-07T07:35:07.464Z,17.03
2019-02-07T07:37:39.062Z,16.90
2019-02-07T07:40:12.341Z,16.50
2019-02-07T07:42:44.227Z,15.90
2019-02-07T07:45:18.207Z,17.70
2019-02-07T07:47:50.253Z,16.40
2019-02-07T07:53:12.386Z,17.27
2019-02-07T07:55:42.555Z,15.90
2019-02-07T08:01:19.161Z,15.70
2019-02-07T08:03:51.124Z,16.43
2019-02-07T08:06:21.406Z,16.50
2019-02-07T08:08:51.191Z,17.40
2019-02-07T08:11:21.574Z,17.07
2019-02-07T08:13:50.674Z,16.95
2019-02-07T08:16:20.314Z,16.87
2019-02-07T08:18:50.915Z,16.83
2019-02-07T08:21:22.951Z,15.80
2019-02-07T08:23:53.657Z,16.43
2019-02-07T08:26:24.741Z,17.27
2019-02-07T08:28:53.478Z,17.97
2019-02-07T08:31:25.592Z,17.03
2019-02-07T08:33:56.615Z,17.57
2019-02-07T08:36:31.631Z,16.70
2019-02-07T08:39:03.482Z,16.30
2019-02-07T08:44:32.213Z,16.33
2019-02-07T08:47:14.931Z,16.67
2019-02-07T08:49:45.659Z,16.23
2019-02-07T08:52:17.744Z,16.73
2019-02-07T08:54:48.614Z,22.30
2019-02-07T08:57:19.640Z,20.27
2019-02-07T08:59:51.025Z,20.37
2019-02-07T09:02:22.005Z,17.00
2019-02-07T09:04:53.056Z,16.90
2019-02-07T09:07:23.395Z,20.07
2019-02-07T09:09:56.486Z,17.70
2019-02-07T09:12:27.893Z,17.30
2019-02-07T09:15:13.101Z,17.97
2019-02-07T09:17:43.842Z,17.25
2019-02-07T09:20:17.502Z,19.07
2019-02-07T09:22:52.545Z,18.10
2019-02-07T09:25:26.413Z,17.60
2019-02-07T09:27:57.551Z,16.70
2019-02-07T09:30:28.604Z,18.23
2019-02-07T09:32:57.826Z,18.40
2019-02-07T09:35:28.538Z,18.03
2019-02-07T09:38:01.522Z,18.67
2019-02-07T09:40:31.921Z,17.83
2019-02-07T09:43:02.257Z,18.07
2019-02-07T09:45:31.869Z,19.23
2019-02-07T09:48:04.205Z,20.47
2019-02-07T09:50:35.205Z,18.10
2019-02-07T09:53:05.563Z,19.83
2019-02-07T09:55:36.842Z,18.77
2019-02-07T09:58:07.443Z,20.60
2019-02-07T10:00:39.719Z,17.20
2019-02-07T10:03:08.402Z,19.40
2019-02-07T10:05:39.392Z,19.67
2019-02-07T10:08:10.575Z,18.47
2019-02-07T10:10:42.743Z,18.03
2019-02-07T10:13:12.491Z,22.50
2019-02-07T10:15:43.288Z,18.87
2019-02-07T10:18:16.372Z,17.23
2019-02-07T10:20:47.606Z,18.60
2019-02-07T10:23:18.035Z,19.80
2019-02-07T10:25:51.266Z,18.57
2019-02-07T10:28:22.343Z,17.93
2019-02-07T10:30:55.464Z,18.07
2019-02-07T10:33:25.159Z,19.10
2019-02-07T10:35:56.269Z,19.10
2019-02-07T10:38:25.585Z,18.70
2019-02-07T10:40:54.345Z,18.10
2019-02-07T10:43:25.369Z,18.57
2019-02-07T10:45:58.461Z,17.87
2019-02-07T10:48:29.283Z,18.20
2019-02-07T10:51:03.473Z,17.35
2019-02-07T10:53:34.670Z,18.20
2019-02-07T10:56:05.981Z,17.17
2019-02-07T10:58:36.285Z,17.27
2019-02-07T11:01:08.717Z,17.77
2019-02-07T11:03:40.731Z,18.47
2019-02-07T11:06:11.350Z,17.60
2019-02-07T11:08:42.579Z,17.40
2019-02-07T11:11:14.617Z,18.33
2019-02-07T11:13:46.306Z,19.77
2019-02-07T11:16:17.405Z,17.90
2019-02-07T11:18:55.320Z,18.67
2019-02-07T11:21:21.758Z,18.33
2019-02-07T11:23:53.794Z,18.30
2019-02-07T11:26:25.789Z,18.33
2019-02-07T11:28:58.112Z,18.37
2019-02-07T11:31:28.923Z,16.50
2019-02-07T11:34:00.089Z,18.47
2019-02-07T11:36:31.792Z,18.37
2019-02-07T11:39:03.953Z,16.63
2019-02-07T11:41:34.420Z,16.83
2019-02-07T11:44:06.370Z,16.77
2019-02-07T11:46:38.418Z,16.53
2019-02-07T11:49:07.984Z,17.77
2019-02-07T11:51:39.883Z,18.53
2019-02-07T11:54:12.369Z,18.07
2019-02-07T11:56:43.553Z,17.82
2019-02-07T11:59:14.625Z,17.67
2019-02-07T12:01:45.758Z,17.50
2019-02-07T12:04:16.627Z,17.27
2019-02-07T12:06:49.118Z,16.13
2019-02-07T12:09:21.104Z,17.80
2019-02-07T12:11:53.121Z,17.60
2019-02-07T12:14:22.310Z,18.70
2019-02-07T12:16:54.271Z,17.87
2019-02-07T12:19:24.285Z,17.53
2019-02-07T12:21:55.838Z,17.30
2019-02-07T12:24:28.000Z,17.33
2019-02-07T12:26:59.181Z,18.13
2019-02-07T12:29:31.114Z,16.95
2019-02-07T12:32:02.241Z,18.35
2019-02-07T12:34:35.136Z,15.90
2019-02-07T12:37:04.540Z,17.07
2019-02-07T12:39:36.373Z,17.00
2019-02-07T12:42:07.350Z,17.48
2019-02-07T12:44:39.203Z,17.70
2019-02-07T12:47:12.106Z,18.23
2019-02-07T12:49:43.285Z,18.90
2019-02-07T12:52:14.589Z,18.43
2019-02-07T12:54:45.662Z,17.90
2019-02-07T12:57:14.636Z,18.03
2019-02-07T12:59:46.803Z,17.90
2019-02-07T13:02:17.559Z,17.73
2019-02-07T13:04:52.159Z,17.10
2019-02-07T13:07:24.343Z,18.17
2019-02-07T13:09:55.642Z,17.77
2019-02-07T13:12:28.623Z,16.90
2019-02-07T13:14:59.793Z,17.55
2019-02-07T13:17:30.868Z,19.00
2019-02-07T13:20:03.100Z,17.37
2019-02-07T13:22:35.372Z,18.30
2019-02-07T13:25:08.462Z,18.10
2019-02-07T13:27:40.680Z,17.27
2019-02-07T13:30:15.600Z,17.10
2019-02-07T13:32:47.838Z,19.00
2019-02-07T13:35:18.725Z,17.27
2019-02-07T13:37:54.782Z,18.07
2019-02-07T13:40:24.709Z,17.37
2019-02-07T13:42:56.658Z,17.83
2019-02-07T13:45:29.293Z,18.27
2019-02-07T13:48:00.336Z,17.80
2019-02-07T13:50:32.581Z,17.43
2019-02-07T13:53:04.933Z,17.70
2019-02-07T13:55:37.470Z,18.80
2019-02-07T13:58:10.808Z,17.25
2019-02-07T14:00:42.177Z,16.80
2019-02-07T14:03:13.958Z,17.80
2019-02-07T14:05:45.110Z,18.85
2019-02-07T14:08:15.340Z,17.13
2019-02-07T14:10:44.497Z,20.10
2019-02-07T14:13:16.772Z,21.10
2019-02-07T14:15:48.813Z,20.70
2019-02-07T14:18:20.957Z,21.90
2019-02-07T14:20:53.073Z,20.47
2019-02-07T14:23:25.069Z,21.45
2019-02-07T14:25:53.781Z,20.23
2019-02-07T14:28:24.164Z,20.73
2019-02-07T14:30:52.808Z,21.60
2019-02-07T14:33:23.822Z,20.67
2019-02-07T14:35:54.850Z,21.17
2019-02-07T14:38:26.881Z,20.60
2019-02-07T14:40:58.883Z,21.50
2019-02-07T14:43:29.842Z,22.60
2019-02-07T14:46:00.503Z,21.47
2019-02-07T14:48:29.173Z,22.60
2019-02-07T14:50:57.572Z,21.27
2019-02-07T14:53:25.956Z,23.70
2019-02-07T14:55:54.392Z,21.67
2019-02-07T14:58:22.741Z,22.10
2019-02-07T15:00:51.078Z,23.33
2019-02-07T15:03:19.405Z,21.27
2019-02-07T15:05:48.094Z,20.85
2019-02-07T15:08:16.534Z,22.13
2019-02-07T15:10:45.003Z,21.10
2019-02-07T15:13:13.770Z,20.73
2019-02-07T15:15:42.091Z,19.93
2019-02-07T15:18:10.598Z,20.57
2019-02-07T15:20:39.378Z,22.67
2019-02-07T15:23:08.234Z,21.57
2019-02-07T15:25:36.616Z,20.90
2019-02-07T15:28:05.253Z,20.80
2019-02-07T15:30:33.674Z,19.20
2019-02-07T15:33:01.997Z,21.17
2019-02-07T15:35:32.538Z,20.70
2019-02-07T15:38:01.110Z,21.20
2019-02-07T15:40:29.770Z,20.67
2019-02-07T15:42:58.443Z,18.90
2019-02-07T15:45:27.332Z,18.67
2019-02-07T15:47:55.711Z,19.23
2019-02-07T15:50:37.353Z,20.50
2019-02-07T15:52:58.392Z,21.23
2019-02-07T15:55:26.942Z,19.15
2019-02-07T15:57:55.566Z,18.30
2019-02-07T16:00:28.146Z,18.13
2019-02-07T16:02:59.606Z,18.00
2019-02-07T16:05:28.059Z,17.80
2019-02-07T16:07:56.445Z,18.87
2019-02-07T16:10:24.774Z,20.00
2019-02-07T16:12:53.164Z,19.40
2019-02-07T16:15:21.675Z,19.50
2019-02-07T16:17:50.066Z,18.43
2019-02-07T16:20:20.358Z,18.60
2019-02-07T16:22:48.790Z,18.93
2019-02-07T16:25:17.441Z,19.00
2019-02-07T16:27:45.838Z,18.97
2019-02-07T16:30:17.015Z,19.23
2019-02-07T16:32:45.461Z,18.95
2019-02-07T16:35:16.518Z,18.27
2019-02-07T16:37:45.040Z,18.62
2019-02-07T16:40:15.510Z,19.10
2019-02-07T16:42:44.739Z,20.27
2019-02-07T16:45:18.300Z,20.23
2019-02-07T16:47:46.646Z,19.53
2019-02-07T16:50:17.862Z,18.90
2019-02-07T16:52:46.276Z,18.07
2019-02-07T16:55:14.638Z,18.20
2019-02-07T16:57:43.157Z,19.30
2019-02-07T17:00:15.480Z,17.73
2019-02-07T17:02:44.193Z,18.20
2019-02-07T17:05:13.774Z,18.20
2019-02-07T17:07:42.271Z,18.77
2019-02-07T17:10:14.863Z,18.30
2019-02-07T17:12:43.430Z,19.00
2019-02-07T17:15:16.910Z,19.93
2019-02-07T17:17:45.523Z,21.10
2019-02-07T17:20:16.765Z,20.63
2019-02-07T17:22:47.489Z,20.30
2019-02-07T17:25:15.915Z,20.80
2019-02-07T17:27:44.419Z,20.30
2019-02-07T17:30:17.597Z,21.07
2019-02-07T17:32:46.329Z,21.42
2019-02-07T17:35:15.867Z,19.50
2019-02-07T17:37:44.507Z,21.20
2019-02-07T17:40:17.361Z,21.50
2019-02-07T17:42:46.125Z,22.20
2019-02-07T17:45:18.183Z,20.33
2019-02-07T17:47:47.074Z,20.30
2019-02-07T17:50:20.546Z,18.85
2019-02-07T17:52:50.396Z,19.10
2019-02-07T17:55:21.251Z,19.57
2019-02-07T17:57:49.621Z,18.70
2019-02-07T18:00:24.469Z,28.50
2019-02-07T18:02:52.979Z,22.70
2019-02-07T18:05:21.390Z,17.77
2019-02-07T18:07:49.814Z,17.23
2019-02-07T18:10:18.382Z,16.63
2019-02-07T18:12:46.860Z,17.53
2019-02-07T18:15:15.248Z,16.23
2019-02-07T18:17:44.074Z,15.48
2019-02-07T18:20:19.736Z,14.50
2019-02-07T18:22:48.206Z,14.23
2019-02-07T18:25:17.335Z,14.25
2019-02-07T18:27:45.817Z,14.87
2019-02-07T18:30:17.958Z,12.05
2019-02-07T18:32:46.815Z,13.30
2019-02-07T18:35:16.895Z,13.55
2019-02-07T18:37:45.506Z,14.30
2019-02-07T18:40:17.755Z,13.65
2019-02-07T18:42:46.147Z,13.50
2019-02-07T18:45:16.026Z,13.43
2019-02-07T18:47:44.719Z,12.80
2019-02-07T18:50:18.158Z,13.40
2019-02-07T18:52:46.526Z,11.67
2019-02-07T18:55:15.108Z,12.30
2019-02-07T18:57:43.524Z,11.53
2019-02-07T19:00:17.028Z,12.40
2019-02-07T19:02:45.380Z,12.37
2019-02-07T19:05:18.170Z,11.00
2019-02-07T19:07:46.667Z,12.43
2019-02-07T19:10:17.219Z,12.80
2019-02-07T19:12:45.848Z,12.13
2019-02-07T19:15:18.595Z,12.20
2019-02-07T19:17:47.572Z,12.10
2019-02-07T19:20:18.120Z,11.70
2019-02-07T19:22:46.812Z,10.70
2019-02-07T19:25:16.708Z,10.30
2019-02-07T19:27:45.204Z,10.82
2019-02-07T19:30:20.524Z,10.67
2019-02-07T19:32:49.101Z,10.60
2019-02-07T19:35:17.513Z,10.13
2019-02-07T19:37:45.927Z,11.97
2019-02-07T19:40:16.821Z,11.60
2019-02-07T19:42:45.356Z,11.00
2019-02-07T19:45:16.916Z,11.25
2019-02-07T19:47:45.539Z,11.45
2019-02-07T19:50:17.841Z,12.90
2019-02-07T19:52:46.606Z,12.63
2019-02-07T19:55:16.359Z,12.40
2019-02-07T19:57:45.230Z,12.20
2019-02-07T20:00:19.743Z,11.30
2019-02-07T20:02:49.040Z,12.37
2019-02-07T20:05:17.701Z,12.50
2019-02-07T20:07:46.976Z,12.47
2019-02-07T20:10:17.447Z,13.27
2019-02-07T20:12:47.186Z,13.93
2019-02-07T20:15:19.855Z,12.83
2019-02-07T20:17:48.205Z,12.93
2019-02-07T20:20:17.142Z,11.63
2019-02-07T20:22:47.927Z,12.37
2019-02-07T20:25:18.350Z,11.90
2019-02-07T20:27:46.856Z,13.70
2019-02-07T20:30:18.698Z,12.40
2019-02-07T20:32:47.184Z,12.57
2019-02-07T20:35:15.890Z,12.73
2019-02-07T20:37:44.267Z,13.10
2019-02-07T20:40:17.138Z,13.23
2019-02-07T20:42:46.580Z,13.30
2019-02-07T20:45:15.494Z,13.30
2019-02-07T20:47:44.312Z,12.00
2019-02-07T20:50:18.089Z,12.40
2019-02-07T20:52:46.827Z,12.57
2019-02-07T20:55:15.679Z,12.35
2019-02-07T20:57:44.029Z,12.60
2019-02-07T21:00:19.164Z,12.20
2019-02-07T21:02:47.743Z,11.73
2019-02-07T21:05:16.878Z,12.00
2019-02-07T21:07:45.396Z,11.47
2019-02-07T21:10:16.740Z,12.00
2019-02-07T21:12:45.152Z,12.50
2019-02-07T21:15:18.801Z,11.50
2019-02-07T21:17:47.240Z,11.90
2019-02-07T21:20:18.122Z,12.10
2019-02-07T21:22:46.609Z,12.43
2019-02-07T21:25:16.421Z,12.23
2019-02-07T21:27:44.839Z,11.30
2019-02-07T21:30:17.621Z,11.00
2019-02-07T21:32:46.534Z,12.27
2019-02-07T21:35:17.652Z,12.50
2019-02-07T21:37:46.232Z,11.20
2019-02-07T21:40:17.894Z,12.15
2019-02-07T21:42:46.426Z,11.57
2019-02-07T21:45:16.759Z,11.33
2019-02-07T21:47:45.244Z,10.60
2019-02-07T21:50:15.890Z,10.50
2019-02-07T21:52:44.260Z,9.90
2019-02-07T21:55:15.332Z,10.00
2019-02-07T21:57:43.923Z,10.80
2019-02-07T22:00:17.178Z,9.60
2019-02-07T22:02:45.759Z,9.73
2019-02-07T22:05:16.016Z,9.47
2019-02-07T22:07:44.490Z,9.53
2019-02-07T22:10:15.863Z,9.60
2019-02-07T22:12:44.710Z,8.70
2019-02-07T22:15:20.072Z,10.13
2019-02-07T22:17:50.042Z,9.20
2019-02-07T22:20:21.695Z,8.63
2019-02-07T22:22:50.271Z,9.10
2019-02-07T22:25:20.834Z,8.40
2019-02-07T22:27:49.178Z,9.20
2019-02-07T22:30:18.901Z,8.40
2019-02-07T22:32:47.584Z,8.07
2019-02-07T22:35:16.549Z,8.20
2019-02-07T22:37:45.047Z,8.47
2019-02-07T22:40:16.477Z,8.37
2019-02-07T22:42:48.053Z,7.70
2019-02-07T22:45:17.983Z,8.23
2019-02-07T22:47:46.941Z,9.65
2019-02-07T22:50:17.065Z,8.30
2019-02-07T22:52:45.484Z,8.50
2019-02-07T22:55:15.076Z,9.30
2019-02-07T22:57:43.499Z,8.20
2019-02-07T23:00:18.386Z,7.60
2019-02-07T23:02:46.808Z,8.37
2019-02-07T23:05:15.157Z,7.70
2019-02-07T23:07:43.573Z,7.30
2019-02-07T23:10:12.780Z,7.60
2019-02-07T23:12:41.170Z,7.47
2019-02-07T23:15:09.918Z,7.20
2019-02-07T23:17:38.708Z,7.50
2019-02-07T23:20:10.115Z,6.83
2019-02-07T23:22:38.412Z,7.15
2019-02-07T23:25:08.758Z,6.60
2019-02-07T23:27:37.202Z,7.27
2019-02-07T23:30:10.735Z,7.07
2019-02-07T23:32:39.154Z,6.63
2019-02-07T23:35:09.264Z,7.00
2019-02-07T23:37:37.561Z,7.60
2019-02-07T23:40:10.925Z,6.73
2019-02-07T23:42:39.317Z,7.00
2019-02-07T23:45:11.223Z,6.20
2019-02-07T23:47:39.574Z,6.23
2019-02-07T23:50:10.340Z,5.97
2019-02-07T23:52:38.703Z,6.93
2019-02-07T23:55:11.686Z,5.67
2019-02-07T23:57:40.114Z,6.20
